Time;durP1;ratioP1;P1;durP2;ratioP2;P2;SDS_P1;SDS_P2;PMS_P1;PMS_P2;Temp;Humidity;BMP_temperature;BMP_pressure;BME280_temperature;BME280_humidity;BME280_pressure;Samples;Min_cycle;Max_cycle;Signal;HPM_P1;HPM_P2
2021/11/02 00:01:27;;;;;;;9.37;2.30;;;;;;;;;;5013843;28;20406;-50
2021/11/02 00:03:54;;;;;;;6.43;2.20;;;;;;;;;;5013915;28;20826;-51
2021/11/02 00:06:20;;;;;;;2.73;2.40;;;;;;;;;;5014065;28;20414;-51
2021/11/02 00:08:46;;;;;;;5.60;2.40;;;;;;;;;;5014052;28;20428;-50
2021/11/02 00:11:12;;;;;;;4.03;2.30;;;;;;;;;;5013645;28;20410;-52
2021/11/02 00:13:41;;;;;;;7.53;2.10;;;;;;;;;;5013821;28;20778;-50
2021/11/02 00:16:08;;;;;;;9.60;2.73;;;;;;;;;;5013820;28;20430;-51
2021/11/02 00:18:36;;;;;;;4.90;2.60;;;;;;;;;;5013795;28;20426;-49
2021/11/02 00:21:02;;;;;;;6.73;2.20;;;;;;;;;;5013567;28;20461;-51
2021/11/02 00:23:34;;;;;;;6.13;2.90;;;;;;;;;;5013715;28;20937;-51
2021/11/02 00:26:00;;;;;;;5.13;2.20;;;;;;;;;;5013687;28;20429;-51
2021/11/02 00:28:26;;;;;;;5.30;2.37;;;;;;;;;;5013493;28;20425;-51
2021/11/02 00:30:52;;;;;;;3.47;2.80;;;;;;;;;;5013288;28;20418;-51
2021/11/02 00:33:18;;;;;;;3.03;2.03;;;;;;;;;;5013513;28;20427;-50
2021/11/02 00:35:44;;;;;;;7.03;2.37;;;;;;;;;;5013636;28;20407;-51
2021/11/02 00:38:10;;;;;;;3.20;2.20;;;;;;;;;;5013417;28;20407;-50
2021/11/02 00:40:36;;;;;;;4.40;2.30;;;;;;;;;;5013159;28;20771;-52
2021/11/02 00:43:04;;;;;;;3.60;2.33;;;;;;;;;;5013357;28;20485;-51
2021/11/02 00:45:37;;;;;;;5.53;3.27;;;;;;;;;;5012838;28;20395;-52
2021/11/02 00:48:05;;;;;;;6.50;2.60;;;;;;;;;;5013292;28;20407;-52
2021/11/02 00:50:34;;;;;;;4.30;2.33;;;;;;;;;;5013012;28;20535;-51
2021/11/02 00:53:00;;;;;;;6.67;2.40;;;;;;;;;;5013230;28;20400;-51
2021/11/02 00:55:26;;;;;;;2.60;2.00;;;;;;;;;;5013169;28;20406;-51
2021/11/02 00:57:52;;;;;;;6.07;2.17;;;;;;;;;;5013316;28;20414;-51
2021/11/02 01:00:19;;;;;;;3.93;2.50;;;;;;;;;;5012856;28;20791;-51
2021/11/02 01:02:45;;;;;;;4.90;1.90;;;;;;;;;;5013192;28;20407;-52
2021/11/02 01:05:12;;;;;;;6.50;2.43;;;;;;;;;;5013135;28;20489;-51
2021/11/02 01:07:38;;;;;;;4.57;2.30;;;;;;;;;;5013134;28;20902;-51
2021/11/02 01:10:05;;;;;;;5.40;2.07;;;;;;;;;;5012836;28;20423;-52
2021/11/02 01:12:32;;;;;;;5.80;2.90;;;;;;;;;;5013165;28;20442;-51
2021/11/02 01:14:58;;;;;;;2.10;2.00;;;;;;;;;;5012863;28;20494;-51
2021/11/02 01:17:24;;;;;;;6.90;2.00;;;;;;;;;;5012868;28;20399;-51
2021/11/02 01:19:50;;;;;;;4.20;1.93;;;;;;;;;;5012774;28;21002;-51
2021/11/02 01:22:16;;;;;;;3.80;1.97;;;;;;;;;;5012602;28;20399;-50
2021/11/02 01:24:42;;;;;;;2.70;2.00;;;;;;;;;;5012657;28;20558;-52
2021/11/02 01:27:08;;;;;;;5.37;2.50;;;;;;;;;;5012821;28;20458;-51
2021/11/02 01:29:34;;;;;;;2.97;2.03;;;;;;;;;;5012633;28;20473;-51
2021/11/02 01:32:00;;;;;;;5.13;2.37;;;;;;;;;;5012432;28;20399;-51
2021/11/02 01:34:26;;;;;;;4.73;2.23;;;;;;;;;;5012482;28;20461;-50
2021/11/02 01:36:52;;;;;;;5.10;2.20;;;;;;;;;;5012428;28;20415;-52
2021/11/02 01:39:18;;;;;;;3.40;1.90;;;;;;;;;;5012147;28;20476;-51
2021/11/02 01:41:44;;;;;;;6.30;2.23;;;;;;;;;;5012162;28;20455;-50
2021/11/02 01:44:10;;;;;;;3.87;1.90;;;;;;;;;;5013057;28;20483;-49
2021/11/02 01:46:40;;;;;;;8.63;1.90;;;;;;;;;;5012329;28;20426;-49
2021/11/02 01:49:07;;;;;;;3.87;2.17;;;;;;;;;;5012210;28;20423;-49
2021/11/02 01:51:35;;;;;;;2.53;1.53;;;;;;;;;;5011935;28;20431;-49
2021/11/02 01:54:01;;;;;;;5.13;1.93;;;;;;;;;;5012429;28;20413;-50
2021/11/02 01:56:28;;;;;;;3.33;2.07;;;;;;;;;;5012091;28;20941;-49
2021/11/02 01:58:54;;;;;;;3.43;1.97;;;;;;;;;;5012131;28;20423;-50
2021/11/02 02:01:29;;;;;;;4.33;2.13;;;;;;;;;;5011397;28;20957;-50
2021/11/02 02:04:33;;;;;;;4.53;2.20;;;;;;;;;;5011634;28;20965;-50
2021/11/02 02:07:06;;;;;;;7.20;2.13;;;;;;;;;;4931968;29;20419;-49
2021/11/02 02:09:52;;;;;;;3.50;1.93;;;;;;;;;;4932249;29;21005;-52
2021/11/02 02:12:22;;;;;;;5.83;2.13;;;;;;;;;;4984216;28;20407;-51
2021/11/02 02:14:54;;;;;;;7.87;2.20;;;;;;;;;;5011979;28;20399;-51
2021/11/02 02:17:28;;;;;;;5.10;2.20;;;;;;;;;;5010703;28;20506;-51
2021/11/02 02:19:59;;;;;;;4.63;1.97;;;;;;;;;;5011914;28;20519;-49
2021/11/02 02:22:37;;;;;;;3.73;1.93;;;;;;;;;;5012125;28;20465;-49
2021/11/02 02:25:18;;;;;;;9.43;2.77;;;;;;;;;;5011775;28;20459;-49
2021/11/02 02:27:53;;;;;;;4.23;2.20;;;;;;;;;;5012062;28;20399;-49
2021/11/02 02:30:19;;;;;;;5.40;2.07;;;;;;;;;;5011605;28;21017;-49
2021/11/02 02:32:48;;;;;;;2.00;1.80;;;;;;;;;;5011910;28;20736;-49
2021/11/02 02:35:18;;;;;;;5.13;1.90;;;;;;;;;;5011786;28;20925;-49
2021/11/02 02:37:45;;;;;;;6.63;2.77;;;;;;;;;;5011805;28;20401;-50
2021/11/02 02:40:11;;;;;;;4.70;2.47;;;;;;;;;;5011319;28;20438;-49
2021/11/02 02:42:37;;;;;;;3.80;2.07;;;;;;;;;;5011735;28;20403;-49
2021/11/02 02:45:04;;;;;;;4.60;2.13;;;;;;;;;;5011701;28;20593;-49
2021/11/02 02:47:31;;;;;;;4.70;2.23;;;;;;;;;;5011681;28;20410;-50
2021/11/02 02:49:58;;;;;;;3.37;1.80;;;;;;;;;;5011405;28;20426;-49
2021/11/02 02:52:24;;;;;;;2.77;1.90;;;;;;;;;;5011445;28;20406;-49
2021/11/02 02:54:51;;;;;;;2.87;2.37;;;;;;;;;;5011694;28;20492;-49
2021/11/02 02:57:19;;;;;;;4.40;2.03;;;;;;;;;;5011603;28;20403;-52
2021/11/02 02:59:45;;;;;;;4.70;2.07;;;;;;;;;;5011482;28;20501;-49
2021/11/02 03:02:12;;;;;;;5.23;2.20;;;;;;;;;;5011871;28;20490;-51
2021/11/02 03:04:40;;;;;;;3.43;2.40;;;;;;;;;;5011383;28;20928;-49
2021/11/02 03:07:07;;;;;;;4.17;2.00;;;;;;;;;;5011716;28;20403;-49
2021/11/02 03:09:33;;;;;;;5.77;1.97;;;;;;;;;;5015042;28;20506;-49
2021/11/02 03:12:00;;;;;;;4.07;2.20;;;;;;;;;;5014874;28;20399;-49
2021/11/02 03:14:31;;;;;;;2.83;1.90;;;;;;;;;;5014983;28;20407;-51
2021/11/02 03:17:06;;;;;;;3.00;2.13;;;;;;;;;;5014988;28;20442;-49
2021/11/02 03:49:28;;;;;;;4.20;2.77;;;;;;;;;;5014408;28;20514;-49
2021/11/02 03:54:47;;;;;;;3.60;2.50;;;;;;;;;;5014252;28;20401;-49
2021/11/02 05:11:56;;;;;;;7.90;2.60;;;;;;;;;;5012722;28;20391;-49
2021/11/02 05:20:01;;;;;;;3.43;2.70;;;;;;;;;;5012648;28;20407;-49
2021/11/02 06:00:06;;;;;;;3.57;2.53;;;;;;;;;;5012213;28;20427;-49
2021/11/02 06:05:14;;;;;;;3.83;2.40;;;;;;;;;;5012179;28;20469;-49
2021/11/02 06:07:52;;;;;;;4.13;2.20;;;;;;;;;;5012055;28;20427;-50
2021/11/02 06:29:33;;;;;;;4.50;3.30;;;;;;;;;;5012061;28;20415;-49
2021/11/02 06:32:06;;;;;;;5.00;3.57;;;;;;;;;;5011916;28;20881;-49
2021/11/02 06:34:55;;;;;;;5.73;3.50;;;;;;;;;;5011813;28;20462;-50
2021/11/02 06:51:15;;;;;;;3.83;2.93;;;;;;;;;;4996662;28;20771;-50
2021/11/02 06:53:35;;;;;;;4.23;3.63;;;;;;;;;;5010439;28;20413;-49
2021/11/02 06:59:33;;;;;;;3.10;2.83;;;;;;;;;;4986939;28;20441;-51
2021/11/02 07:17:03;;;;;;;8.73;2.80;;;;;;;;;;5015183;28;20908;-50
2021/11/02 07:18:49;;;;;;;3.20;2.90;;;;;;;;;;5009236;28;20487;-51
2021/11/02 07:21:24;;;;;;;3.30;2.87;;;;;;;;;;5014694;28;20443;-52
2021/11/02 08:46:58;;;;;;;2.27;2.07;;;;;;;;;;5013362;28;20537;-50
2021/11/02 08:49:24;;;;;;;4.10;2.00;;;;;;;;;;5013207;28;20429;-51
2021/11/02 08:51:53;;;;;;;2.90;2.03;;;;;;;;;;5013024;28;20486;-51
2021/11/02 08:54:20;;;;;;;3.90;1.83;;;;;;;;;;5013175;28;20402;-51
2021/11/02 08:56:45;;;;;;;2.10;1.80;;;;;;;;;;5013042;28;20813;-50
2021/11/02 08:59:11;;;;;;;3.40;1.60;;;;;;;;;;5012824;28;20419;-50
2021/11/02 09:01:40;;;;;;;3.80;1.80;;;;;;;;;;5012822;28;20486;-51
2021/11/02 09:04:08;;;;;;;10.10;2.00;;;;;;;;;;5013049;28;20811;-47
2021/11/02 09:06:34;;;;;;;2.50;1.80;;;;;;;;;;5012484;28;20399;-50
2021/11/02 09:09:04;;;;;;;4.20;1.70;;;;;;;;;;5012765;28;20477;-50
2021/11/02 09:11:31;;;;;;;1.70;1.60;;;;;;;;;;5011590;28;20458;-50
2021/11/02 09:13:57;;;;;;;3.10;1.83;;;;;;;;;;5012895;28;20407;-51
2021/11/02 09:16:24;;;;;;;9.60;2.73;;;;;;;;;;5012964;28;20955;-50
2021/11/02 09:18:51;;;;;;;1.70;1.60;;;;;;;;;;5012666;28;20426;-50
2021/11/02 09:21:18;;;;;;;2.23;1.93;;;;;;;;;;5012386;28;20441;-51
2021/11/02 09:23:45;;;;;;;6.93;1.97;;;;;;;;;;5012348;28;20889;-50
2021/11/02 09:26:11;;;;;;;2.70;1.93;;;;;;;;;;5012558;28;20400;-50
2021/11/02 09:28:37;;;;;;;5.83;1.63;;;;;;;;;;5012503;28;20781;-51
2021/11/02 09:31:04;;;;;;;2.20;1.57;;;;;;;;;;5012128;28;20401;-50
2021/11/02 09:33:33;;;;;;;2.60;1.80;;;;;;;;;;5012480;28;20406;-50
2021/11/02 09:36:03;;;;;;;9.23;2.30;;;;;;;;;;5012434;28;20403;-50
2021/11/02 09:38:52;;;;;;;4.50;2.23;;;;;;;;;;5012085;28;20521;-51
2021/11/02 09:41:33;;;;;;;2.60;1.80;;;;;;;;;;5012042;28;20461;-50
2021/11/02 09:44:10;;;;;;;2.70;2.00;;;;;;;;;;5012254;28;20890;-50
2021/11/02 09:46:39;;;;;;;1.73;1.63;;;;;;;;;;5012228;28;20391;-50
2021/11/02 09:49:11;;;;;;;2.03;1.60;;;;;;;;;;5012105;28;20453;-50
2021/11/02 09:51:40;;;;;;;2.37;1.40;;;;;;;;;;5012023;28;20402;-50
2021/11/02 09:54:13;;;;;;;3.20;1.70;;;;;;;;;;5012185;28;20403;-51
2021/11/02 09:56:48;;;;;;;2.50;1.87;;;;;;;;;;5011851;28;20410;-51
2021/11/02 09:59:17;;;;;;;1.83;1.53;;;;;;;;;;5012338;28;20484;-51
2021/11/02 10:02:03;;;;;;;2.50;1.30;;;;;;;;;;5011925;28;20462;-51
2021/11/02 10:04:45;;;;;;;1.97;1.70;;;;;;;;;;5012116;28;20461;-51
2021/11/02 10:07:17;;;;;;;3.70;1.70;;;;;;;;;;5012135;28;20436;-51
2021/11/02 10:10:04;;;;;;;2.03;1.43;;;;;;;;;;5011868;28;20419;-51
2021/11/02 10:12:36;;;;;;;3.03;1.50;;;;;;;;;;5000758;28;20388;-51
2021/11/02 10:15:10;;;;;;;1.87;1.70;;;;;;;;;;5012058;28;20407;-51
2021/11/02 10:17:46;;;;;;;3.03;1.30;;;;;;;;;;5011207;28;20380;-51
2021/11/02 10:20:16;;;;;;;3.07;1.60;;;;;;;;;;5012554;28;20431;-49
2021/11/02 10:22:41;;;;;;;4.53;1.93;;;;;;;;;;5016668;28;20457;-51
2021/11/02 10:25:11;;;;;;;3.43;1.30;;;;;;;;;;5018706;28;20439;-51
2021/11/02 10:27:50;;;;;;;3.37;1.83;;;;;;;;;;5017305;28;20435;-49
2021/11/02 10:30:29;;;;;;;3.27;1.30;;;;;;;;;;5014839;28;20489;-49
2021/11/02 10:33:01;;;;;;;2.60;1.30;;;;;;;;;;5015899;28;20822;-50
2021/11/02 10:38:14;;;;;;;1.90;1.07;;;;;;;;;;5861679;23;20998;-46
2021/11/02 10:40:50;;;;;;;3.27;1.47;;;;;;;;;;5033116;28;20873;-47
2021/11/02 10:43:27;;;;;;;3.67;1.63;;;;;;;;;;5007526;28;20790;-52
2021/11/02 10:46:04;;;;;;;2.43;1.70;;;;;;;;;;5015926;28;20413;-51
2021/11/02 10:48:31;;;;;;;3.00;1.47;;;;;;;;;;5015055;28;20393;-52
2021/11/02 10:51:05;;;;;;;1.97;1.50;;;;;;;;;;5015809;28;20487;-52
2021/11/02 10:53:37;;;;;;;2.17;1.73;;;;;;;;;;5015550;28;20433;-52
2021/11/02 10:56:09;;;;;;;1.80;1.43;;;;;;;;;;5016137;28;20406;-47
2021/11/02 10:58:43;;;;;;;4.70;1.80;;;;;;;;;;5015076;28;20436;-46
2021/11/02 11:01:11;;;;;;;3.47;1.17;;;;;;;;;;5013327;28;20407;-47
2021/11/02 11:03:38;;;;;;;2.60;1.33;;;;;;;;;;5013342;28;20541;-47
2021/11/02 11:06:05;;;;;;;1.60;1.50;;;;;;;;;;5014507;28;20793;-46
2021/11/02 11:08:35;;;;;;;2.23;1.27;;;;;;;;;;5014492;28;20396;-48
2021/11/02 11:11:13;;;;;;;1.43;1.30;;;;;;;;;;5014975;28;20381;-46
2021/11/02 11:13:40;;;;;;;2.60;1.40;;;;;;;;;;5015374;28;20406;-48
2021/11/02 11:16:13;;;;;;;4.50;1.40;;;;;;;;;;5014936;28;20402;-48
2021/11/02 11:18:39;;;;;;;2.80;1.53;;;;;;;;;;5014831;28;20508;-46
2021/11/02 11:21:04;;;;;;;1.33;1.23;;;;;;;;;;5015164;28;20497;-49
2021/11/02 11:23:34;;;;;;;4.03;1.10;;;;;;;;;;5014805;28;20546;-47
2021/11/02 11:26:05;;;;;;;1.20;1.10;;;;;;;;;;5014577;28;20824;-49
2021/11/02 11:28:35;;;;;;;1.63;1.20;;;;;;;;;;5014139;28;20961;-47
2021/11/02 11:31:01;;;;;;;2.90;1.20;;;;;;;;;;5014753;28;20393;-46
2021/11/02 11:33:31;;;;;;;1.87;1.37;;;;;;;;;;5014920;28;20781;-46
2021/11/02 11:36:00;;;;;;;4.20;1.27;;;;;;;;;;5014658;28;20375;-49
2021/11/02 11:38:30;;;;;;;6.50;1.50;;;;;;;;;;5014034;28;20913;-46
2021/11/02 11:40:57;;;;;;;4.33;1.07;;;;;;;;;;5014488;28;20401;-46
2021/11/02 11:43:25;;;;;;;2.00;1.10;;;;;;;;;;5014564;28;20403;-46
2021/11/02 11:45:54;;;;;;;1.73;1.00;;;;;;;;;;5014454;28;20395;-46
2021/11/02 11:48:21;;;;;;;1.80;1.10;;;;;;;;;;5014230;28;20423;-48
2021/11/02 11:50:48;;;;;;;7.90;1.10;;;;;;;;;;5013315;28;20398;-46
2021/11/02 11:53:18;;;;;;;1.40;1.20;;;;;;;;;;5014604;28;20935;-49
2021/11/02 11:55:45;;;;;;;1.10;1.00;;;;;;;;;;5014348;28;20414;-46
2021/11/02 11:58:24;;;;;;;1.10;1.00;;;;;;;;;;5013719;28;20399;-47
2021/11/02 12:00:51;;;;;;;1.10;1.00;;;;;;;;;;5014277;28;20453;-46
2021/11/02 12:03:20;;;;;;;1.37;1.27;;;;;;;;;;5014021;28;20414;-46
2021/11/02 12:05:46;;;;;;;1.17;1.07;;;;;;;;;;5013966;28;20502;-46
2021/11/02 12:08:34;;;;;;;1.60;1.30;;;;;;;;;;5013728;28;20401;-46
2021/11/02 12:11:01;;;;;;;1.33;1.10;;;;;;;;;;5014033;28;20390;-46
2021/11/02 12:13:29;;;;;;;1.63;1.10;;;;;;;;;;5013905;28;20458;-46
2021/11/02 12:16:14;;;;;;;2.00;1.27;;;;;;;;;;5013850;28;20381;-46
2021/11/02 12:18:42;;;;;;;1.73;1.50;;;;;;;;;;5013458;28;20394;-47
2021/11/02 12:21:12;;;;;;;1.63;1.13;;;;;;;;;;5013586;28;20486;-46
2021/11/02 12:23:41;;;;;;;3.10;1.77;;;;;;;;;;5013733;28;20469;-46
2021/11/02 12:26:08;;;;;;;1.80;1.67;;;;;;;;;;5006148;28;20419;-46
2021/11/02 12:28:35;;;;;;;1.30;1.20;;;;;;;;;;5013006;28;20420;-46
2021/11/02 12:31:06;;;;;;;1.63;1.13;;;;;;;;;;5013747;28;20411;-46
2021/11/02 12:33:33;;;;;;;3.27;1.37;;;;;;;;;;5013443;28;20377;-46
2021/11/02 12:36:02;;;;;;;1.37;1.27;;;;;;;;;;5013483;28;20748;-46
2021/11/02 12:38:32;;;;;;;1.30;1.20;;;;;;;;;;5013086;28;20912;-46
2021/11/02 12:40:58;;;;;;;2.40;1.10;;;;;;;;;;5012434;28;20461;-47
2021/11/02 12:43:31;;;;;;;1.30;1.20;;;;;;;;;;5013206;28;20420;-46
2021/11/02 12:45:59;;;;;;;1.40;1.30;;;;;;;;;;5011791;28;20411;-46
2021/11/02 12:48:25;;;;;;;3.53;1.10;;;;;;;;;;5011054;28;20423;-46
2021/11/02 12:50:52;;;;;;;2.27;1.20;;;;;;;;;;5012628;28;20404;-46
2021/11/02 12:53:19;;;;;;;1.20;1.10;;;;;;;;;;5013189;28;20397;-47
2021/11/02 12:55:46;;;;;;;1.30;1.10;;;;;;;;;;5012933;28;20887;-46
2021/11/02 12:58:12;;;;;;;1.50;1.20;;;;;;;;;;5012640;28;20416;-46
2021/11/02 13:00:50;;;;;;;2.07;1.20;;;;;;;;;;5013040;28;20405;-47
2021/11/02 13:03:21;;;;;;;0.97;0.97;;;;;;;;;;5003565;28;20991;-46
2021/11/02 13:05:55;;;;;;;1.57;1.47;;;;;;;;;;5012848;28;20442;-47
2021/11/02 13:08:28;;;;;;;1.30;1.20;;;;;;;;;;5012310;28;20422;-48
2021/11/02 13:10:54;;;;;;;2.17;1.20;;;;;;;;;;5012086;28;20428;-47
2021/11/02 13:13:22;;;;;;;1.67;1.20;;;;;;;;;;5011244;28;20405;-47
2021/11/02 13:15:52;;;;;;;4.50;1.33;;;;;;;;;;5012714;28;20404;-46
2021/11/02 13:18:37;;;;;;;2.03;1.00;;;;;;;;;;5012403;28;20425;-46
2021/11/02 13:21:18;;;;;;;1.67;1.20;;;;;;;;;;5012643;28;20398;-46
2021/11/02 13:23:46;;;;;;;1.20;1.10;;;;;;;;;;5012884;28;20960;-49
2021/11/02 13:26:22;;;;;;;1.20;1.10;;;;;;;;;;5012521;28;20405;-46
2021/11/02 13:28:51;;;;;;;1.30;1.20;;;;;;;;;;5012261;28;20416;-46
2021/11/02 13:31:26;;;;;;;1.23;1.13;;;;;;;;;;5012385;28;20408;-49
2021/11/02 13:33:56;;;;;;;1.73;1.10;;;;;;;;;;5012404;28;20853;-46
2021/11/02 13:36:22;;;;;;;0.83;0.83;;;;;;;;;;5012299;28;20440;-46
2021/11/02 13:38:48;;;;;;;2.07;1.30;;;;;;;;;;5012213;28;20436;-47
2021/11/02 13:41:21;;;;;;;1.10;1.00;;;;;;;;;;5012232;28;20883;-46
2021/11/02 13:43:48;;;;;;;2.07;1.43;;;;;;;;;;5012245;28;21027;-46
2021/11/02 13:46:17;;;;;;;1.23;1.10;;;;;;;;;;5012196;28;20404;-49
2021/11/02 13:48:43;;;;;;;1.57;1.20;;;;;;;;;;5012062;28;20463;-45
2021/11/02 13:51:11;;;;;;;1.33;1.23;;;;;;;;;;5012018;28;20463;-47
2021/11/02 13:53:37;;;;;;;2.20;1.20;;;;;;;;;;5012217;28;20413;-46
2021/11/02 13:56:05;;;;;;;1.43;1.20;;;;;;;;;;5012126;28;20900;-49
2021/11/02 13:58:31;;;;;;;1.20;1.10;;;;;;;;;;5011754;28;20432;-46
2021/11/02 14:00:57;;;;;;;1.30;1.20;;;;;;;;;;5012185;28;20433;-49
2021/11/02 14:03:32;;;;;;;2.00;1.27;;;;;;;;;;5011997;28;20461;-46
2021/11/02 14:05:59;;;;;;;1.40;1.23;;;;;;;;;;5012060;28;20781;-46
2021/11/02 14:08:25;;;;;;;3.33;1.20;;;;;;;;;;5011528;28;20983;-47
2021/11/02 14:10:53;;;;;;;1.90;1.20;;;;;;;;;;5012070;28;20785;-46
2021/11/02 14:13:36;;;;;;;1.60;1.40;;;;;;;;;;5011905;28;20411;-48
2021/11/02 14:16:02;;;;;;;1.20;1.10;;;;;;;;;;5012009;28;20399;-46
2021/11/02 14:18:35;;;;;;;1.33;1.20;;;;;;;;;;5011435;28;20442;-46
2021/11/02 14:21:01;;;;;;;1.13;1.07;;;;;;;;;;5011851;28;20399;-48
2021/11/02 14:23:30;;;;;;;4.73;2.50;;;;;;;;;;5011875;28;20382;-48
2021/11/02 14:26:15;;;;;;;1.50;1.23;;;;;;;;;;5010917;28;20827;-47
2021/11/02 14:28:45;;;;;;;1.30;1.20;;;;;;;;;;5011510;28;20461;-46
2021/11/02 14:31:31;;;;;;;2.20;1.20;;;;;;;;;;5012008;28;20404;-46
2021/11/02 14:33:57;;;;;;;2.13;1.50;;;;;;;;;;5011818;28;20412;-46
2021/11/02 14:36:39;;;;;;;1.43;1.33;;;;;;;;;;5011945;28;20487;-46
2021/11/02 14:39:06;;;;;;;1.37;1.27;;;;;;;;;;5011486;28;20428;-46
2021/11/02 14:41:33;;;;;;;5.53;1.57;;;;;;;;;;5011706;28;20419;-49
2021/11/02 14:44:18;;;;;;;1.50;1.40;;;;;;;;;;5011548;28;20865;-46
2021/11/02 14:46:47;;;;;;;1.60;1.40;;;;;;;;;;5012004;28;20803;-47
2021/11/02 14:49:29;;;;;;;1.33;1.23;;;;;;;;;;5011336;28;20429;-47
2021/11/02 14:52:03;;;;;;;4.50;1.27;;;;;;;;;;5011772;28;20403;-48
2021/11/02 14:54:34;;;;;;;2.20;1.70;;;;;;;;;;5011550;28;20399;-49
2021/11/02 14:57:18;;;;;;;2.20;1.30;;;;;;;;;;5004194;28;20433;-46
2021/11/02 14:59:52;;;;;;;1.70;1.60;;;;;;;;;;4991610;28;20792;-46
2021/11/02 15:02:31;;;;;;;1.50;1.40;;;;;;;;;;4992042;28;20400;-46
2021/11/02 15:05:03;;;;;;;1.70;1.60;;;;;;;;;;4995054;28;20454;-45
2021/11/02 15:07:31;;;;;;;1.57;1.47;;;;;;;;;;4994146;28;20961;-45
2021/11/02 15:09:57;;;;;;;1.30;1.20;;;;;;;;;;4995486;28;20401;-47
2021/11/02 15:12:24;;;;;;;1.50;1.40;;;;;;;;;;4995875;28;20407;-46
2021/11/02 15:14:50;;;;;;;1.50;1.40;;;;;;;;;;4993810;28;20412;-47
2021/11/02 15:17:19;;;;;;;1.37;1.27;;;;;;;;;;4993120;28;20408;-46
2021/11/02 15:19:46;;;;;;;1.30;1.20;;;;;;;;;;4994510;28;20899;-47
2021/11/02 15:22:13;;;;;;;2.30;1.30;;;;;;;;;;4994226;28;20408;-46
2021/11/02 15:24:41;;;;;;;1.63;1.53;;;;;;;;;;4994177;28;20451;-46
2021/11/02 15:27:15;;;;;;;2.70;1.30;;;;;;;;;;4995291;28;20404;-46
2021/11/02 15:29:51;;;;;;;1.83;1.73;;;;;;;;;;4994914;28;20417;-47
2021/11/02 15:32:25;;;;;;;1.70;1.60;;;;;;;;;;4995139;28;20404;-49
2021/11/02 15:34:55;;;;;;;2.07;1.67;;;;;;;;;;4995114;28;20405;-45
2021/11/02 15:37:22;;;;;;;1.70;1.60;;;;;;;;;;4995089;28;20825;-46
2021/11/02 15:39:49;;;;;;;2.43;1.60;;;;;;;;;;4994768;28;20399;-49
2021/11/02 15:42:28;;;;;;;1.53;1.43;;;;;;;;;;4994995;28;20412;-45
2021/11/02 15:44:55;;;;;;;1.83;1.73;;;;;;;;;;4994861;28;20486;-46
2021/11/02 15:47:21;;;;;;;1.70;1.50;;;;;;;;;;4994696;28;20498;-47
2021/11/02 15:49:57;;;;;;;1.63;1.53;;;;;;;;;;4994739;28;20411;-46
2021/11/02 15:52:25;;;;;;;1.83;1.43;;;;;;;;;;4994858;28;20395;-47
2021/11/02 15:54:51;;;;;;;2.23;1.30;;;;;;;;;;4994618;28;20409;-48
2021/11/02 15:57:17;;;;;;;1.50;1.40;;;;;;;;;;4994638;28;20435;-50
2021/11/02 15:59:43;;;;;;;2.00;1.90;;;;;;;;;;5009860;28;20749;-46
2021/11/02 16:02:09;;;;;;;1.80;1.70;;;;;;;;;;5014042;28;20449;-46
2021/11/02 16:04:35;;;;;;;1.63;1.53;;;;;;;;;;5013414;28;20455;-46
2021/11/02 16:07:09;;;;;;;1.60;1.50;;;;;;;;;;5012118;28;20403;-47
2021/11/02 16:09:45;;;;;;;1.60;1.50;;;;;;;;;;5011834;28;20436;-45
2021/11/02 16:12:15;;;;;;;2.60;1.80;;;;;;;;;;5009609;28;20410;-46
2021/11/02 16:14:49;;;;;;;1.70;1.60;;;;;;;;;;5013865;28;20931;-46
2021/11/02 16:17:15;;;;;;;6.83;1.80;;;;;;;;;;5013660;28;20407;-46
2021/11/02 16:19:41;;;;;;;2.10;1.90;;;;;;;;;;5014030;28;20572;-46
2021/11/02 16:22:07;;;;;;;1.90;1.70;;;;;;;;;;5013649;28;20399;-46
2021/11/02 16:24:34;;;;;;;2.17;2.07;;;;;;;;;;5013626;28;20821;-46
2021/11/02 16:27:15;;;;;;;1.90;1.70;;;;;;;;;;5013590;28;20395;-47
2021/11/02 16:29:41;;;;;;;3.20;1.93;;;;;;;;;;5013244;28;20933;-46
2021/11/02 16:32:18;;;;;;;1.57;1.47;;;;;;;;;;5013712;28;20485;-46
2021/11/02 16:34:44;;;;;;;1.80;1.70;;;;;;;;;;5013348;28;20473;-46
2021/11/02 16:37:10;;;;;;;1.70;1.60;;;;;;;;;;5013518;28;20794;-47
2021/11/02 16:39:36;;;;;;;1.67;1.57;;;;;;;;;;5013298;28;20805;-46
2021/11/02 16:42:04;;;;;;;1.70;1.60;;;;;;;;;;5013313;28;20438;-46
2021/11/02 16:44:37;;;;;;;1.67;1.57;;;;;;;;;;5013774;28;20454;-51
2021/11/02 16:47:06;;;;;;;1.80;1.70;;;;;;;;;;5013075;28;20415;-51
2021/11/02 16:49:32;;;;;;;1.80;1.70;;;;;;;;;;5013063;28;20458;-51
2021/11/02 16:52:00;;;;;;;2.10;1.90;;;;;;;;;;5013298;28;20408;-50
2021/11/02 16:54:30;;;;;;;2.20;1.83;;;;;;;;;;5013203;28;20409;-51
2021/11/02 16:57:08;;;;;;;2.03;1.93;;;;;;;;;;5013857;28;20411;-49
2021/11/02 16:59:40;;;;;;;2.27;2.07;;;;;;;;;;5013071;28;20454;-50
2021/11/02 17:02:16;;;;;;;2.00;1.90;;;;;;;;;;5013170;28;20400;-50
2021/11/02 17:05:01;;;;;;;2.43;2.23;;;;;;;;;;5012908;28;20464;-50
2021/11/02 17:07:35;;;;;;;2.47;2.27;;;;;;;;;;5013132;28;20482;-49
2021/11/02 17:10:17;;;;;;;3.73;2.07;;;;;;;;;;5012732;28;20978;-50
2021/11/02 17:12:48;;;;;;;3.60;2.73;;;;;;;;;;5012849;28;20397;-50
2021/11/02 17:15:19;;;;;;;3.20;2.00;;;;;;;;;;5012771;28;20426;-50
2021/11/02 17:17:45;;;;;;;2.57;2.37;;;;;;;;;;5012534;28;20419;-50
2021/11/02 17:20:13;;;;;;;2.30;2.20;;;;;;;;;;5012651;28;20453;-51
2021/11/02 17:22:40;;;;;;;2.30;2.00;;;;;;;;;;5012620;28;20408;-50
2021/11/02 17:25:07;;;;;;;2.00;1.80;;;;;;;;;;5012497;28;20811;-50
2021/11/02 17:27:33;;;;;;;2.83;2.50;;;;;;;;;;5012199;28;20417;-49
2021/11/02 17:29:59;;;;;;;2.00;1.90;;;;;;;;;;5012425;28;20399;-50
2021/11/02 17:32:26;;;;;;;2.00;1.90;;;;;;;;;;5012577;28;20403;-49
2021/11/02 17:34:52;;;;;;;2.37;2.20;;;;;;;;;;5012403;28;20831;-48
2021/11/02 17:37:18;;;;;;;3.07;2.77;;;;;;;;;;5012474;28;20758;-51
2021/11/02 17:39:45;;;;;;;2.40;2.20;;;;;;;;;;5012154;28;20423;-50
2021/11/02 17:42:11;;;;;;;3.00;2.40;;;;;;;;;;5012425;28;20441;-49
2021/11/02 17:44:38;;;;;;;2.30;2.20;;;;;;;;;;5012236;28;20973;-50
2021/11/02 17:47:09;;;;;;;2.70;2.50;;;;;;;;;;5012269;28;20487;-50
2021/11/02 17:49:36;;;;;;;3.03;2.77;;;;;;;;;;5011956;28;20431;-51
2021/11/02 17:52:02;;;;;;;4.37;3.07;;;;;;;;;;5012407;28;20430;-50
2021/11/02 17:54:28;;;;;;;5.47;3.13;;;;;;;;;;5012183;28;20891;-50
2021/11/02 17:56:54;;;;;;;2.80;2.60;;;;;;;;;;5012128;28;20406;-49
2021/11/02 17:59:24;;;;;;;3.00;2.10;;;;;;;;;;5011911;28;20427;-49
2021/11/02 18:01:51;;;;;;;2.50;2.30;;;;;;;;;;5011976;28;20485;-48
2021/11/02 18:04:18;;;;;;;3.27;2.80;;;;;;;;;;5012103;28;20461;-48
2021/11/02 18:06:44;;;;;;;2.80;2.67;;;;;;;;;;5011995;28;20417;-49
2021/11/02 18:09:12;;;;;;;2.23;2.13;;;;;;;;;;5011806;28;20419;-50
2021/11/02 18:11:39;;;;;;;3.27;2.97;;;;;;;;;;5011932;28;20407;-49
2021/11/02 18:14:05;;;;;;;2.93;2.70;;;;;;;;;;5012061;28;20490;-50
2021/11/02 18:16:32;;;;;;;3.30;3.00;;;;;;;;;;5011697;28;20460;-50
2021/11/02 18:19:00;;;;;;;2.60;2.40;;;;;;;;;;5011707;28;20464;-50
2021/11/02 18:21:27;;;;;;;2.93;2.73;;;;;;;;;;5011881;28;20487;-51
2021/11/02 18:23:53;;;;;;;4.37;3.73;;;;;;;;;;5011860;28;20482;-50
2021/11/02 18:26:22;;;;;;;2.73;2.50;;;;;;;;;;5011897;28;20396;-49
2021/11/02 18:28:48;;;;;;;3.07;2.60;;;;;;;;;;4997028;28;20434;-48
2021/11/02 18:31:15;;;;;;;3.03;2.83;;;;;;;;;;4992168;28;20750;-50
2021/11/02 18:33:41;;;;;;;4.73;3.37;;;;;;;;;;4992184;28;20912;-50
2021/11/02 18:36:09;;;;;;;3.50;3.20;;;;;;;;;;4992203;28;20448;-50
2021/11/02 18:38:36;;;;;;;3.50;3.20;;;;;;;;;;4992834;28;20942;-50
2021/11/02 18:41:02;;;;;;;3.70;3.33;;;;;;;;;;4995953;28;20492;-49
2021/11/02 18:43:29;;;;;;;3.83;3.07;;;;;;;;;;4995641;28;20417;-48
2021/11/02 18:45:56;;;;;;;3.57;3.27;;;;;;;;;;4995974;28;20427;-50
2021/11/02 18:48:23;;;;;;;3.20;2.90;;;;;;;;;;4995515;28;20420;-47
2021/11/02 18:50:49;;;;;;;4.20;3.80;;;;;;;;;;4996123;28;20494;-51
2021/11/02 18:53:15;;;;;;;5.83;4.13;;;;;;;;;;4995845;28;20787;-48
2021/11/02 18:55:41;;;;;;;5.67;4.40;;;;;;;;;;4995852;28;20405;-50
2021/11/02 18:58:07;;;;;;;6.60;4.77;;;;;;;;;;4995123;28;20578;-49
2021/11/02 19:00:33;;;;;;;8.10;5.67;;;;;;;;;;4995786;28;20407;-48
2021/11/02 19:02:59;;;;;;;5.70;4.53;;;;;;;;;;4995674;28;20828;-47
2021/11/02 19:05:25;;;;;;;5.87;4.43;;;;;;;;;;4995514;28;20453;-50
2021/11/02 19:07:51;;;;;;;5.23;4.73;;;;;;;;;;4995257;28;20449;-50
2021/11/02 19:10:18;;;;;;;5.90;5.30;;;;;;;;;;4996011;28;20393;-49
2021/11/02 19:12:44;;;;;;;4.77;4.20;;;;;;;;;;4995246;28;20406;-50
2021/11/02 19:15:12;;;;;;;9.10;5.90;;;;;;;;;;4995272;28;20409;-49
2021/11/02 19:17:38;;;;;;;8.83;5.47;;;;;;;;;;4995048;28;20488;-50
2021/11/02 19:20:04;;;;;;;7.23;5.23;;;;;;;;;;4995305;28;20974;-50
2021/11/02 19:22:30;;;;;;;5.80;5.20;;;;;;;;;;4995379;28;20440;-50
2021/11/02 19:24:56;;;;;;;7.17;5.40;;;;;;;;;;4995097;28;20496;-50
2021/11/02 19:27:22;;;;;;;6.37;5.77;;;;;;;;;;4995387;28;20430;-49
2021/11/02 19:29:52;;;;;;;8.57;5.07;;;;;;;;;;4995066;28;20413;-50
2021/11/02 19:32:18;;;;;;;8.50;6.47;;;;;;;;;;4996230;28;20393;-48
2021/11/02 19:34:44;;;;;;;8.10;5.43;;;;;;;;;;4995102;28;20493;-46
2021/11/02 19:37:10;;;;;;;7.50;6.67;;;;;;;;;;4995304;28;20883;-46
2021/11/02 19:39:36;;;;;;;8.50;5.73;;;;;;;;;;4994739;28;20424;-48
2021/11/02 19:42:02;;;;;;;8.90;6.50;;;;;;;;;;4994523;28;20781;-48
2021/11/02 19:44:33;;;;;;;9.37;6.87;;;;;;;;;;4994838;28;20591;-47
2021/11/02 19:46:59;;;;;;;11.97;7.87;;;;;;;;;;4994912;28;20411;-47